createdAt,value
2024-05-09T00:00:35.501Z,21.98
2024-05-09T00:03:07.748Z,26.00
2024-05-09T00:05:34.741Z,22.23
2024-05-09T00:08:01.528Z,23.75
2024-05-09T00:10:35.382Z,21.73
2024-05-09T00:13:04.798Z,21.00
2024-05-09T00:15:31.530Z,24.67
2024-05-09T00:17:58.257Z,23.92
2024-05-09T00:20:33.060Z,25.98
2024-05-09T00:23:06.664Z,22.42
2024-05-09T00:25:33.369Z,24.42
2024-05-09T00:27:59.877Z,25.80
2024-05-09T00:30:33.442Z,25.88
2024-05-09T00:33:02.774Z,25.95
2024-05-09T00:35:29.654Z,37.88
2024-05-09T00:37:56.308Z,28.38
2024-05-09T00:40:31.005Z,24.08
2024-05-09T00:43:05.640Z,26.33
2024-05-09T00:45:32.259Z,23.35
2024-05-09T00:48:02.561Z,23.48
2024-05-09T00:50:35.797Z,28.45
2024-05-09T00:53:05.781Z,23.77
2024-05-09T00:55:32.470Z,22.45
2024-05-09T00:57:59.091Z,24.67
2024-05-09T01:00:31.820Z,23.95
2024-05-09T01:03:05.647Z,24.13
2024-05-09T01:05:32.650Z,28.20
2024-05-09T01:07:59.304Z,27.40
2024-05-09T01:10:33.528Z,29.38
2024-05-09T01:13:02.601Z,25.98
2024-05-09T01:15:29.122Z,27.30
2024-05-09T01:17:56.275Z,29.25
2024-05-09T01:20:32.085Z,29.98
2024-05-09T01:23:07.502Z,27.98
2024-05-09T01:25:34.180Z,24.27
2024-05-09T01:28:00.774Z,22.95
2024-05-09T01:30:33.993Z,27.20
2024-05-09T01:33:03.596Z,27.13
2024-05-09T01:35:30.481Z,26.67
2024-05-09T01:37:57.102Z,25.80
2024-05-09T01:40:33.317Z,27.02
2024-05-09T01:43:04.510Z,25.33
2024-05-09T01:45:31.084Z,27.63
2024-05-09T01:47:57.761Z,26.75
2024-05-09T01:50:35.837Z,25.73
2024-05-09T01:53:05.720Z,28.27
2024-05-09T01:55:32.515Z,26.02
2024-05-09T01:57:59.016Z,24.45
2024-05-09T02:00:36.818Z,26.42
2024-05-09T02:03:15.169Z,27.45
2024-05-09T02:05:45.230Z,27.58
2024-05-09T02:08:16.994Z,28.42
2024-05-09T02:10:44.778Z,28.05
2024-05-09T02:13:11.882Z,27.83
2024-05-09T02:15:38.437Z,28.98
2024-05-09T02:18:05.642Z,30.92
2024-05-09T02:20:36.266Z,27.25
2024-05-09T02:23:05.136Z,31.90
2024-05-09T02:25:32.431Z,28.80
2024-05-09T02:27:59.343Z,30.67
2024-05-09T02:30:35.808Z,31.58
2024-05-09T02:33:07.148Z,29.13
2024-05-09T02:35:34.127Z,28.83
2024-05-09T02:38:00.869Z,27.67
2024-05-09T02:40:35.698Z,28.55
2024-05-09T02:43:05.020Z,32.35
2024-05-09T02:45:31.618Z,30.25
2024-05-09T02:47:58.521Z,31.50
2024-05-09T02:50:33.653Z,27.25
2024-05-09T02:53:05.038Z,25.55
2024-05-09T02:55:31.696Z,25.77
2024-05-09T02:57:58.188Z,27.15
2024-05-09T03:00:34.191Z,28.60
2024-05-09T03:03:06.459Z,28.88
2024-05-09T03:05:33.447Z,25.88
2024-05-09T03:08:00.144Z,24.92
2024-05-09T03:10:29.102Z,25.00
2024-05-09T03:13:05.703Z,21.98
2024-05-09T03:15:33.033Z,21.20
2024-05-09T03:18:00.883Z,24.63
2024-05-09T03:20:33.216Z,23.83
2024-05-09T03:23:02.213Z,24.02
2024-05-09T03:25:28.826Z,23.83
2024-05-09T03:27:55.501Z,22.15
2024-05-09T03:30:31.086Z,25.70
2024-05-09T03:33:13.882Z,27.83
2024-05-09T03:35:41.683Z,23.35
2024-05-09T03:38:08.499Z,24.98
2024-05-09T03:40:35.345Z,26.00
2024-05-09T03:43:01.886Z,23.20
2024-05-09T03:45:28.354Z,22.23
2024-05-09T03:47:55.120Z,25.50
2024-05-09T03:50:29.905Z,25.02
2024-05-09T03:53:01.274Z,25.88
2024-05-09T03:55:28.566Z,24.42
2024-05-09T03:57:55.120Z,25.20
2024-05-09T04:00:30.792Z,27.85
2024-05-09T04:03:04.122Z,26.42
2024-05-09T04:05:31.204Z,24.92
2024-05-09T04:07:58.405Z,26.92
2024-05-09T04:10:32.380Z,25.30
2024-05-09T04:13:00.558Z,23.35
2024-05-09T04:15:27.076Z,25.30
2024-05-09T04:17:53.778Z,24.55
2024-05-09T04:20:29.373Z,25.90
2024-05-09T04:23:04.278Z,22.15
2024-05-09T04:25:32.148Z,24.90
2024-05-09T04:27:58.644Z,28.13
2024-05-09T04:30:34.563Z,23.33
2024-05-09T04:33:05.878Z,26.85
2024-05-09T04:35:32.721Z,28.75
2024-05-09T04:37:59.298Z,25.25
2024-05-09T04:40:33.015Z,27.40
2024-05-09T04:45:28.691Z,26.17
2024-05-09T04:47:55.486Z,24.70
2024-05-09T04:50:30.125Z,27.23
2024-05-09T04:53:03.465Z,26.27
2024-05-09T04:55:30.069Z,24.20
2024-05-09T04:57:56.566Z,23.92
2024-05-09T05:00:32.323Z,27.10
2024-05-09T05:03:06.813Z,25.70
2024-05-09T05:05:34.433Z,26.00
2024-05-09T05:08:01.179Z,29.20
2024-05-09T05:10:33.834Z,29.45
2024-05-09T05:13:23.051Z,26.02
2024-05-09T05:15:56.939Z,32.00
2024-05-09T05:18:26.189Z,30.15
2024-05-09T05:20:53.077Z,26.13
2024-05-09T05:23:21.087Z,29.50
2024-05-09T05:25:49.266Z,29.58
2024-05-09T05:28:16.664Z,29.05
2024-05-09T05:30:43.324Z,31.92
2024-05-09T05:33:11.622Z,29.60
2024-05-09T05:35:39.016Z,25.85
2024-05-09T05:38:09.539Z,30.52
2024-05-09T05:40:38.453Z,28.58
2024-05-09T05:43:10.359Z,30.50
2024-05-09T05:45:37.425Z,31.08
2024-05-09T05:48:05.692Z,31.60
2024-05-09T05:50:36.376Z,30.55
2024-05-09T05:53:08.946Z,26.10
2024-05-09T05:55:40.590Z,26.20
2024-05-09T05:58:11.078Z,27.92
2024-05-09T06:00:39.885Z,29.88
2024-05-09T06:03:08.847Z,28.77
2024-05-09T06:05:36.859Z,27.95
2024-05-09T06:08:03.708Z,28.38
2024-05-09T06:10:37.623Z,30.42
2024-05-09T06:13:07.431Z,27.75
2024-05-09T06:15:34.127Z,27.08
2024-05-09T06:18:00.911Z,28.88
2024-05-09T06:20:35.227Z,29.63
2024-05-09T06:23:05.248Z,30.85
2024-05-09T06:25:32.043Z,28.15
2024-05-09T06:28:00.049Z,30.25
2024-05-09T06:30:35.283Z,27.63
2024-05-09T06:33:06.698Z,28.40
2024-05-09T06:35:33.830Z,31.67
2024-05-09T06:38:00.647Z,31.33
2024-05-09T06:40:36.162Z,30.48
2024-05-09T06:43:05.335Z,32.78
2024-05-09T06:45:31.835Z,36.28
2024-05-09T06:47:58.525Z,33.97
2024-05-09T06:50:28.359Z,30.67
2024-05-09T06:52:58.315Z,29.38
2024-05-09T06:55:24.928Z,32.28
2024-05-09T06:57:51.478Z,31.83
2024-05-09T07:00:26.863Z,30.40
2024-05-09T07:02:58.999Z,30.33
2024-05-09T07:05:26.840Z,31.30
2024-05-09T07:07:53.540Z,30.75
2024-05-09T07:10:28.456Z,34.00
2024-05-09T07:12:59.268Z,33.83
2024-05-09T07:15:25.794Z,29.83
2024-05-09T07:17:52.618Z,34.28
2024-05-09T07:20:27.598Z,31.50
2024-05-09T07:23:00.615Z,31.75
2024-05-09T07:25:27.138Z,32.03
2024-05-09T07:27:53.617Z,31.42
2024-05-09T07:30:27.620Z,34.45
2024-05-09T07:32:59.773Z,29.00
2024-05-09T07:35:26.783Z,37.00
2024-05-09T07:37:53.561Z,36.53
2024-05-09T07:40:28.396Z,39.25
2024-05-09T07:43:03.250Z,40.33
2024-05-09T07:45:45.844Z,35.72
2024-05-09T07:53:38.366Z,34.08
2024-05-09T07:56:06.313Z,34.30
2024-05-09T07:58:33.019Z,36.17
2024-05-09T08:00:59.813Z,37.60
2024-05-09T08:03:26.519Z,37.75
2024-05-09T08:05:54.321Z,35.38
2024-05-09T08:08:20.932Z,37.38
2024-05-09T08:10:47.498Z,40.03
2024-05-09T08:13:14.208Z,34.33
2024-05-09T08:15:40.894Z,33.15
2024-05-09T08:18:08.979Z,41.00
2024-05-09T08:20:39.334Z,35.03
2024-05-09T08:23:06.135Z,35.97
2024-05-09T08:25:32.996Z,36.08
2024-05-09T08:27:59.699Z,38.00
2024-05-09T08:30:33.394Z,40.88
2024-05-09T08:33:03.930Z,38.97
2024-05-09T08:35:30.583Z,40.92
2024-05-09T08:37:57.307Z,40.25
2024-05-09T08:40:30.911Z,38.40
2024-05-09T08:43:03.075Z,39.28
2024-05-09T08:45:33.225Z,38.40
2024-05-09T08:48:01.280Z,37.78
2024-05-09T08:50:35.885Z,38.63
2024-05-09T08:53:05.482Z,40.88
2024-05-09T08:55:32.553Z,36.58
2024-05-09T08:58:03.444Z,35.00
2024-05-09T09:00:36.782Z,34.28
2024-05-09T09:03:08.976Z,39.67
2024-05-09T09:05:38.713Z,36.80
2024-05-09T09:08:07.625Z,34.78
2024-05-09T09:10:35.198Z,35.55
2024-05-09T09:13:04.261Z,34.35
2024-05-09T09:15:31.120Z,33.97
2024-05-09T09:18:01.724Z,32.20
2024-05-09T09:20:35.790Z,37.88
2024-05-09T09:23:04.513Z,33.45
2024-05-09T09:25:31.453Z,35.85
2024-05-09T09:27:58.535Z,30.58
2024-05-09T09:30:35.136Z,29.65
2024-05-09T09:33:04.890Z,27.80
2024-05-09T09:35:31.668Z,27.42
2024-05-09T09:38:05.675Z,32.47
2024-05-09T09:40:40.998Z,27.25
2024-05-09T09:43:18.562Z,27.38
2024-05-09T09:45:49.558Z,26.40
2024-05-09T09:48:16.847Z,26.33
2024-05-09T09:50:43.983Z,22.52
2024-05-09T09:53:12.589Z,24.90
2024-05-09T09:55:40.197Z,21.75
2024-05-09T09:58:09.548Z,23.15
2024-05-09T10:00:38.481Z,19.27
2024-05-09T10:03:05.319Z,18.48
2024-05-09T10:05:33.514Z,17.08
2024-05-09T10:08:05.703Z,19.17
2024-05-09T10:10:34.459Z,14.57
2024-05-09T10:13:05.182Z,15.65
2024-05-09T10:15:45.820Z,12.93
2024-05-09T10:18:12.909Z,12.35
2024-05-09T10:20:44.323Z,15.48
2024-05-09T10:23:23.587Z,11.30
2024-05-09T10:26:06.293Z,14.25
2024-05-09T10:28:35.021Z,13.95
2024-05-09T10:31:08.560Z,7.07
2024-05-09T10:33:52.616Z,5.40
2024-05-09T10:36:23.568Z,6.20
2024-05-09T10:38:51.497Z,4.57
2024-05-09T10:41:19.745Z,5.25
2024-05-09T10:43:47.381Z,5.50
2024-05-09T10:46:18.791Z,5.82
2024-05-09T10:48:45.649Z,5.18
2024-05-09T10:51:13.558Z,8.80
2024-05-09T10:53:48.989Z,6.32
2024-05-09T10:56:16.528Z,7.00
2024-05-09T10:58:43.224Z,8.05
2024-05-09T11:01:10.394Z,5.90
2024-05-09T11:03:38.150Z,6.13
2024-05-09T11:06:06.241Z,9.68
2024-05-09T11:08:33.952Z,8.75
2024-05-09T11:11:02.764Z,6.65
2024-05-09T11:13:34.467Z,6.78
2024-05-09T11:16:02.245Z,6.35
2024-05-09T11:18:34.680Z,5.85
2024-05-09T11:21:03.566Z,5.82
2024-05-09T11:23:30.697Z,5.60
2024-05-09T11:25:58.820Z,4.75
2024-05-09T11:28:28.404Z,4.63
2024-05-09T11:31:09.469Z,4.72
2024-05-09T11:33:41.076Z,6.13
2024-05-09T11:36:08.645Z,5.78
2024-05-09T11:38:35.353Z,6.63
2024-05-09T11:41:03.214Z,7.95
2024-05-09T11:43:29.918Z,5.90
2024-05-09T11:45:57.584Z,5.28
2024-05-09T11:48:25.478Z,5.88
2024-05-09T11:50:52.288Z,6.55
2024-05-09T11:53:18.779Z,5.20
2024-05-09T11:55:45.310Z,7.32
2024-05-09T11:58:13.725Z,4.88
2024-05-09T12:00:40.351Z,4.45
2024-05-09T12:03:06.942Z,6.68
2024-05-09T12:05:34.519Z,6.00
2024-05-09T12:08:01.838Z,5.47
2024-05-09T12:12:58.223Z,9.98
2024-05-09T12:15:24.762Z,4.68
2024-05-09T12:17:51.376Z,5.13
2024-05-09T12:20:25.799Z,5.32
2024-05-09T12:22:59.563Z,7.93
2024-05-09T12:25:26.124Z,4.65
2024-05-09T12:27:53.017Z,6.50
2024-05-09T12:30:32.175Z,5.18
2024-05-09T12:33:04.083Z,5.20
2024-05-09T12:35:30.783Z,5.63
2024-05-09T12:37:57.318Z,7.53
2024-05-09T12:40:34.018Z,7.30
2024-05-09T12:43:03.905Z,7.25
2024-05-09T12:45:30.612Z,10.57
2024-05-09T12:47:57.382Z,5.07
2024-05-09T12:50:31.050Z,8.00
2024-05-09T12:52:59.537Z,4.80
2024-05-09T12:55:27.036Z,7.82
2024-05-09T12:57:54.672Z,7.75
2024-05-09T13:00:28.119Z,5.65
2024-05-09T13:03:00.288Z,4.25
2024-05-09T13:05:27.182Z,5.32
2024-05-09T13:07:53.931Z,5.95
2024-05-09T13:10:28.963Z,6.15
2024-05-09T13:12:59.278Z,4.85
2024-05-09T13:15:25.921Z,4.80
2024-05-09T13:17:52.557Z,5.05
2024-05-09T13:20:26.408Z,6.22
2024-05-09T13:23:01.378Z,4.78
2024-05-09T13:25:27.882Z,6.40
2024-05-09T13:27:54.856Z,6.50
2024-05-09T13:30:29.282Z,7.88
2024-05-09T13:33:04.857Z,4.57
2024-05-09T13:35:32.097Z,5.45
2024-05-09T13:38:00.676Z,6.85
2024-05-09T13:40:33.091Z,4.97
2024-05-09T13:43:02.650Z,6.00
2024-05-09T13:45:29.383Z,5.93
2024-05-09T13:47:56.515Z,5.18
2024-05-09T13:50:31.290Z,6.68
2024-05-09T13:53:02.034Z,8.45
2024-05-09T13:55:28.687Z,6.60
2024-05-09T13:57:55.648Z,5.97
2024-05-09T14:00:37.668Z,5.63
2024-05-09T14:03:09.026Z,6.80
2024-05-09T14:05:35.775Z,6.03
2024-05-09T14:08:02.990Z,6.95
2024-05-09T14:10:31.679Z,5.80
2024-05-09T14:12:59.072Z,7.20
2024-05-09T14:15:25.669Z,6.95
2024-05-09T14:17:52.386Z,5.82
2024-05-09T14:20:28.519Z,6.32
2024-05-09T14:22:58.421Z,5.97
2024-05-09T14:25:26.331Z,7.15
2024-05-09T14:27:53.278Z,6.75
2024-05-09T14:30:29.581Z,9.30
2024-05-09T14:33:01.298Z,6.10
2024-05-09T14:35:28.358Z,6.78
2024-05-09T14:37:55.000Z,6.88
2024-05-09T14:40:35.728Z,6.38
2024-05-09T14:43:07.759Z,5.93
2024-05-09T14:45:34.637Z,7.85
2024-05-09T14:48:01.650Z,9.15
2024-05-09T14:50:35.146Z,8.90
2024-05-09T14:53:06.220Z,6.22
2024-05-09T14:55:35.750Z,7.88
2024-05-09T14:58:03.231Z,7.20
2024-05-09T15:00:35.572Z,6.63
2024-05-09T15:03:03.698Z,7.93
2024-05-09T15:05:30.518Z,8.02
2024-05-09T15:07:57.533Z,6.60
2024-05-09T15:10:33.160Z,7.95
2024-05-09T15:13:02.170Z,7.30
2024-05-09T15:15:28.708Z,6.13
2024-05-09T15:17:55.761Z,7.25
2024-05-09T15:20:31.013Z,8.65
2024-05-09T15:23:01.807Z,7.90
2024-05-09T15:25:28.448Z,7.07
2024-05-09T15:27:55.187Z,6.82
2024-05-09T15:30:29.932Z,6.88
2024-05-09T15:32:59.015Z,7.57
2024-05-09T15:35:25.533Z,7.38
2024-05-09T15:37:52.104Z,6.05
2024-05-09T15:40:26.583Z,7.30
2024-05-09T15:43:02.350Z,6.82
2024-05-09T15:45:29.293Z,6.30
2024-05-09T15:47:57.129Z,7.53
2024-05-09T15:50:35.126Z,7.53
2024-05-09T15:55:34.203Z,7.65
2024-05-09T15:58:02.011Z,6.70
2024-05-09T16:00:36.639Z,8.18
2024-05-09T16:03:06.922Z,8.45
2024-05-09T16:05:33.815Z,6.68
2024-05-09T16:08:00.625Z,6.53
2024-05-09T16:10:32.419Z,6.57
2024-05-09T16:13:00.643Z,7.03
2024-05-09T16:15:27.257Z,6.75
2024-05-09T16:17:56.620Z,8.63
2024-05-09T16:25:19.411Z,7.00
2024-05-09T16:27:46.147Z,6.93
2024-05-09T16:30:20.959Z,7.10
2024-05-09T16:32:53.955Z,8.70
2024-05-09T16:35:20.482Z,8.25
2024-05-09T16:37:47.752Z,7.78
2024-05-09T16:40:22.147Z,10.40
2024-05-09T16:42:56.634Z,9.90
2024-05-09T16:45:23.313Z,8.65
2024-05-09T16:47:50.353Z,7.50
2024-05-09T16:50:25.651Z,7.82
2024-05-09T16:52:55.337Z,9.77
2024-05-09T16:55:21.946Z,9.93
2024-05-09T16:57:48.638Z,6.97
2024-05-09T17:00:22.677Z,9.30
2024-05-09T17:02:57.960Z,6.28
2024-05-09T17:05:24.744Z,8.25
2024-05-09T17:07:51.632Z,10.25
2024-05-09T17:10:26.563Z,9.50
2024-05-09T17:12:58.663Z,8.40
2024-05-09T17:15:25.704Z,9.30
2024-05-09T17:17:52.383Z,10.05
2024-05-09T17:20:29.281Z,9.02
2024-05-09T17:23:00.231Z,10.20
2024-05-09T17:25:26.817Z,10.65
2024-05-09T17:27:53.779Z,9.73
2024-05-09T17:30:28.759Z,9.48
2024-05-09T17:33:01.132Z,9.57
2024-05-09T17:35:27.761Z,11.95
2024-05-09T17:37:54.408Z,10.88
2024-05-09T17:40:27.839Z,14.13
2024-05-09T17:42:59.714Z,12.20
2024-05-09T17:45:26.302Z,11.13
2024-05-09T17:47:53.107Z,14.60
2024-05-09T17:50:27.345Z,9.95
2024-05-09T17:53:00.321Z,9.90
2024-05-09T17:55:26.932Z,11.38
2024-05-09T17:57:53.591Z,9.30
2024-05-09T18:00:29.039Z,11.32
2024-05-09T18:03:04.001Z,10.05
2024-05-09T18:05:30.956Z,13.15
2024-05-09T18:07:57.892Z,12.52
2024-05-09T18:10:32.554Z,12.23
2024-05-09T18:13:03.278Z,11.82
2024-05-09T18:15:29.848Z,14.50
2024-05-09T18:17:56.618Z,15.32
2024-05-09T18:20:32.790Z,15.15
2024-05-09T18:23:07.531Z,17.63
2024-05-09T18:25:34.192Z,14.45
2024-05-09T18:28:02.620Z,14.23
2024-05-09T18:30:34.726Z,15.18
2024-05-09T18:33:06.076Z,16.20
2024-05-09T18:35:34.301Z,16.88
2024-05-09T18:38:01.239Z,16.30
2024-05-09T18:40:34.428Z,17.10
2024-05-09T18:43:05.832Z,17.35
2024-05-09T18:45:34.304Z,18.45
2024-05-09T18:48:02.443Z,16.92
2024-05-09T18:50:35.827Z,18.00
2024-05-09T18:53:06.509Z,17.25
2024-05-09T18:55:33.703Z,17.40
2024-05-09T18:58:01.459Z,18.95
2024-05-09T19:00:40.445Z,19.25
2024-05-09T19:03:12.224Z,19.27
2024-05-09T19:05:41.506Z,18.13
2024-05-09T19:08:08.933Z,17.67
2024-05-09T19:10:38.434Z,18.45
2024-05-09T19:13:09.232Z,18.48
2024-05-09T19:15:39.455Z,19.70
2024-05-09T19:18:06.938Z,20.52
2024-05-09T19:20:35.588Z,19.80
2024-05-09T19:23:03.665Z,19.40
2024-05-09T19:25:30.369Z,16.33
2024-05-09T19:27:57.017Z,20.10
2024-05-09T19:30:30.530Z,19.15
2024-05-09T19:33:05.538Z,18.85
2024-05-09T19:35:32.389Z,19.35
2024-05-09T19:37:59.107Z,17.15
2024-05-09T19:40:31.272Z,18.25
2024-05-09T19:43:00.060Z,18.20
2024-05-09T19:45:26.639Z,19.50
2024-05-09T19:47:53.303Z,16.55
2024-05-09T19:50:26.990Z,16.95
2024-05-09T19:55:28.832Z,16.70
2024-05-09T19:57:55.456Z,18.08
2024-05-09T20:00:29.147Z,19.88
2024-05-09T20:03:01.783Z,18.70
2024-05-09T20:05:30.746Z,14.98
2024-05-09T20:07:57.617Z,17.17
2024-05-09T20:10:29.791Z,16.08
2024-05-09T20:12:59.321Z,16.45
2024-05-09T20:15:25.891Z,15.43
2024-05-09T20:17:52.531Z,14.90
2024-05-09T20:20:28.347Z,17.13
2024-05-09T20:23:02.815Z,15.85
2024-05-09T20:25:29.438Z,15.38
2024-05-09T20:27:55.947Z,15.05
2024-05-09T20:30:28.987Z,14.48
2024-05-09T20:32:59.418Z,15.43
2024-05-09T20:35:26.613Z,14.18
2024-05-09T20:37:53.157Z,12.60
2024-05-09T20:40:28.239Z,13.38
2024-05-09T20:42:59.217Z,15.02
2024-05-09T20:45:25.869Z,13.25
2024-05-09T20:47:52.537Z,15.18
2024-05-09T20:50:28.095Z,12.77
2024-05-09T20:53:02.611Z,14.43
2024-05-09T20:55:29.823Z,16.58
2024-05-09T20:57:56.627Z,13.48
2024-05-09T21:00:30.076Z,15.48
2024-05-09T21:03:05.126Z,54.45
2024-05-09T21:05:31.973Z,95.45
2024-05-09T21:07:58.723Z,55.28
2024-05-09T21:12:52.887Z,18.48
2024-05-09T21:15:19.387Z,23.55
2024-05-09T21:17:46.047Z,37.17
2024-05-09T21:20:17.288Z,43.85
2024-05-09T21:22:47.210Z,17.92
2024-05-09T21:25:14.157Z,14.80
2024-05-09T21:27:40.883Z,16.83
2024-05-09T21:30:12.954Z,15.30
2024-05-09T21:32:44.922Z,14.35
2024-05-09T21:35:11.453Z,15.40
2024-05-09T21:37:37.947Z,16.38
2024-05-09T21:40:09.563Z,15.88
2024-05-09T21:42:40.161Z,16.58
2024-05-09T21:45:06.931Z,15.05
2024-05-09T21:47:37.084Z,14.55
2024-05-09T21:50:06.099Z,17.40
2024-05-09T21:52:34.158Z,13.85
2024-05-09T21:55:00.832Z,17.30
2024-05-09T21:57:27.329Z,18.20
2024-05-09T21:59:53.854Z,16.45
2024-05-09T22:02:20.432Z,15.00
2024-05-09T22:04:47.181Z,15.30
2024-05-09T22:07:13.874Z,14.45
2024-05-09T22:09:45.332Z,15.73
2024-05-09T22:12:12.281Z,15.10
2024-05-09T22:14:38.949Z,16.75
2024-05-09T22:17:05.541Z,16.35
2024-05-09T22:19:32.214Z,15.57
2024-05-09T22:21:58.811Z,15.90
2024-05-09T22:24:25.333Z,16.55
2024-05-09T22:26:53.539Z,16.50
2024-05-09T22:29:20.027Z,15.63
2024-05-09T22:31:46.565Z,18.42
2024-05-09T22:34:13.274Z,14.55
2024-05-09T22:36:39.933Z,17.20
2024-05-09T22:39:06.639Z,14.40
2024-05-09T22:41:33.201Z,14.85
2024-05-09T22:44:01.809Z,16.67
2024-05-09T22:46:28.388Z,15.00
2024-05-09T22:48:55.140Z,17.17
2024-05-09T22:51:21.803Z,16.50
2024-05-09T22:53:48.332Z,18.85
2024-05-09T22:56:15.106Z,17.85
2024-05-09T22:58:41.625Z,16.05
2024-05-09T23:01:14.555Z,17.08
2024-05-09T23:03:41.253Z,18.05
2024-05-09T23:06:08.269Z,17.17
2024-05-09T23:08:34.772Z,18.90
2024-05-09T23:11:01.496Z,16.35
2024-05-09T23:13:28.119Z,17.20
2024-05-09T23:15:54.685Z,21.52
2024-05-09T23:18:21.348Z,25.95
2024-05-09T23:20:48.009Z,18.50
2024-05-09T23:23:14.485Z,18.15
2024-05-09T23:25:41.534Z,17.50
2024-05-09T23:28:08.609Z,15.82
2024-05-09T23:30:38.958Z,16.88
2024-05-09T23:33:10.735Z,16.42
2024-05-09T23:35:37.733Z,17.17
2024-05-09T23:38:04.975Z,17.30
2024-05-09T23:40:38.495Z,15.73
2024-05-09T23:43:09.077Z,17.75
2024-05-09T23:45:36.067Z,17.95
2024-05-09T23:48:03.442Z,17.98
2024-05-09T23:50:35.839Z,17.45
2024-05-09T23:53:06.311Z,17.20
2024-05-09T23:55:33.754Z,15.52
2024-05-09T23:58:00.655Z,16.42
